createdAt,value
2019-03-11T00:00:31.765Z,2.62
2019-03-11T00:03:02.220Z,2.58
2019-03-11T00:05:32.623Z,2.56
2019-03-11T00:08:03.087Z,2.55
2019-03-11T00:10:33.526Z,2.56
2019-03-11T00:13:04.025Z,2.63
2019-03-11T00:15:34.427Z,2.63
2019-03-11T00:18:04.910Z,2.64
2019-03-11T00:20:35.324Z,2.72
2019-03-11T00:23:05.796Z,2.75
2019-03-11T00:25:36.114Z,2.65
2019-03-11T00:28:06.492Z,2.67
2019-03-11T00:30:36.805Z,2.60
2019-03-11T00:33:07.160Z,2.46
2019-03-11T00:35:37.458Z,2.48
2019-03-11T00:38:07.770Z,2.47
2019-03-11T00:40:38.209Z,2.49
2019-03-11T00:43:08.518Z,2.45
2019-03-11T00:45:38.878Z,2.46
2019-03-11T00:48:09.168Z,2.53
2019-03-11T00:50:39.513Z,2.68
2019-03-11T00:53:09.792Z,2.97
2019-03-11T00:55:40.137Z,2.97
2019-03-11T00:58:10.357Z,3.05
2019-03-11T01:00:40.921Z,2.99
2019-03-11T01:03:11.221Z,2.96
2019-03-11T01:05:41.676Z,2.87
2019-03-11T01:08:11.967Z,2.93
2019-03-11T01:10:42.312Z,2.91
2019-03-11T01:13:12.626Z,3.00
2019-03-11T01:15:42.998Z,2.98
2019-03-11T01:18:13.286Z,2.90
2019-03-11T01:20:43.633Z,2.94
2019-03-11T01:23:13.934Z,2.88
2019-03-11T01:25:44.282Z,2.88
2019-03-11T01:28:14.570Z,2.86
2019-03-11T01:30:44.930Z,2.85
2019-03-11T01:33:15.308Z,2.86
2019-03-11T01:35:45.752Z,2.90
2019-03-11T01:38:16.150Z,2.86
2019-03-11T01:40:46.613Z,2.78
2019-03-11T01:43:17.017Z,2.75
2019-03-11T01:45:47.485Z,2.67
2019-03-11T01:48:17.873Z,2.64
2019-03-11T01:50:48.316Z,2.59
2019-03-11T01:53:18.723Z,2.61
2019-03-11T01:55:49.198Z,2.69
2019-03-11T01:58:19.592Z,2.63
2019-03-11T02:00:50.068Z,2.63
2019-03-11T02:03:20.490Z,2.66
2019-03-11T02:05:50.938Z,2.61
2019-03-11T02:08:21.354Z,2.56
2019-03-11T02:10:51.826Z,2.50
2019-03-11T02:13:22.254Z,2.45
2019-03-11T02:15:52.699Z,2.39
2019-03-11T02:18:23.105Z,2.32
2019-03-11T02:20:53.576Z,2.41
2019-03-11T02:23:23.983Z,2.38
2019-03-11T02:25:54.447Z,2.28
2019-03-11T02:28:24.860Z,2.23
2019-03-11T02:30:55.328Z,2.21
2019-03-11T02:33:25.722Z,2.21
2019-03-11T02:35:56.226Z,2.16
2019-03-11T02:38:26.537Z,2.14
2019-03-11T02:40:56.990Z,2.21
2019-03-11T02:43:27.282Z,2.28
2019-03-11T02:45:57.715Z,2.32
2019-03-11T02:48:28.008Z,2.31
2019-03-11T02:50:58.367Z,2.38
2019-03-11T02:53:28.662Z,2.51
2019-03-11T02:55:59.039Z,2.58
2019-03-11T02:58:29.331Z,2.71
2019-03-11T03:01:08.679Z,2.77
2019-03-11T03:03:40.550Z,2.81
2019-03-11T03:06:15.598Z,2.83
2019-03-11T03:08:46.088Z,2.84
2019-03-11T03:11:16.538Z,2.81
2019-03-11T03:13:46.948Z,2.79
2019-03-11T03:16:17.378Z,2.75
2019-03-11T03:18:47.783Z,2.81
2019-03-11T03:21:18.213Z,2.73
2019-03-11T03:23:48.500Z,2.75
2019-03-11T03:26:18.861Z,2.83
2019-03-11T03:28:49.169Z,2.80
2019-03-11T03:31:19.488Z,2.82
2019-03-11T03:33:49.805Z,2.90
2019-03-11T03:36:20.134Z,2.94
2019-03-11T03:38:50.446Z,2.96
2019-03-11T03:41:20.897Z,2.96
2019-03-11T03:43:51.110Z,3.01
2019-03-11T03:46:21.460Z,3.01
2019-03-11T03:48:51.771Z,3.08
2019-03-11T03:51:22.240Z,3.16
2019-03-11T03:53:52.520Z,3.25
2019-03-11T03:56:22.843Z,3.42
2019-03-11T03:58:53.118Z,3.39
2019-03-11T04:01:23.466Z,3.49
2019-03-11T04:03:53.775Z,3.55
2019-03-11T04:06:24.133Z,3.59
2019-03-11T04:08:54.455Z,3.58
2019-03-11T04:11:24.808Z,3.72
2019-03-11T04:13:55.099Z,3.78
2019-03-11T04:16:25.524Z,3.80
2019-03-11T04:18:56.690Z,3.87
2019-03-11T04:21:27.035Z,3.91
2019-03-11T04:23:57.331Z,4.07
2019-03-11T04:26:30.503Z,4.19
2019-03-11T04:29:00.822Z,4.29
2019-03-11T04:31:31.157Z,4.45
2019-03-11T04:34:01.485Z,4.76
2019-03-11T04:36:31.849Z,4.94
2019-03-11T04:39:02.149Z,5.11
2019-03-11T04:41:32.599Z,5.10
2019-03-11T04:44:02.894Z,5.14
2019-03-11T04:46:33.341Z,5.20
2019-03-11T04:49:03.646Z,5.20
2019-03-11T04:51:33.996Z,5.22
2019-03-11T04:54:04.289Z,5.07
2019-03-11T04:56:34.654Z,5.09
2019-03-11T04:59:12.856Z,5.08
2019-03-11T05:01:43.204Z,5.06
2019-03-11T05:04:13.492Z,4.99
2019-03-11T05:06:43.817Z,5.06
2019-03-11T05:09:14.093Z,5.09
2019-03-11T05:11:44.436Z,5.00
2019-03-11T05:14:14.754Z,5.04
2019-03-11T05:16:45.106Z,5.02
2019-03-11T05:19:15.385Z,5.01
2019-03-11T05:21:45.740Z,5.04
2019-03-11T05:24:16.041Z,5.10
2019-03-11T05:26:47.949Z,5.08
2019-03-11T05:29:18.197Z,5.13
2019-03-11T05:31:48.545Z,5.15
2019-03-11T05:34:18.843Z,5.12
2019-03-11T05:36:49.176Z,5.21
2019-03-11T05:39:19.469Z,5.22
2019-03-11T05:41:50.337Z,5.28
2019-03-11T05:44:20.660Z,5.28
2019-03-11T05:46:50.999Z,5.31
2019-03-11T05:49:21.305Z,5.29
2019-03-11T05:51:51.888Z,5.31
2019-03-11T05:54:22.189Z,5.31
2019-03-11T05:56:52.557Z,5.22
2019-03-11T05:59:22.853Z,5.22
2019-03-11T06:01:53.216Z,5.19
2019-03-11T06:04:23.542Z,5.17
2019-03-11T06:06:53.885Z,5.24
2019-03-11T06:09:24.184Z,5.26
2019-03-11T06:11:54.794Z,5.32
2019-03-11T06:14:25.097Z,5.29
2019-03-11T06:16:55.476Z,5.21
2019-03-11T06:19:25.797Z,5.26
2019-03-11T06:21:57.725Z,5.36
2019-03-11T06:24:30.485Z,5.25
2019-03-11T06:27:00.127Z,5.26
2019-03-11T06:29:31.030Z,5.35
2019-03-11T06:32:01.482Z,5.43
2019-03-11T06:34:31.819Z,5.54
2019-03-11T06:37:02.186Z,5.68
2019-03-11T06:39:32.493Z,5.77
2019-03-11T06:42:03.275Z,5.84
2019-03-11T06:44:33.597Z,6.25
2019-03-11T06:47:04.059Z,6.64
2019-03-11T06:49:34.388Z,6.75
2019-03-11T06:52:04.742Z,6.74
2019-03-11T06:54:35.073Z,6.56
2019-03-11T06:57:05.432Z,6.68
2019-03-11T06:59:35.761Z,6.74
2019-03-11T07:02:06.109Z,6.78
2019-03-11T07:04:36.421Z,6.87
2019-03-11T07:07:06.816Z,7.00
2019-03-11T07:09:37.171Z,7.18
2019-03-11T07:12:08.825Z,7.23
2019-03-11T07:14:39.158Z,7.22
2019-03-11T07:17:09.497Z,7.56
2019-03-11T07:19:39.797Z,7.46
2019-03-11T07:22:10.155Z,7.61
2019-03-11T07:24:40.444Z,7.77
2019-03-11T07:27:10.730Z,7.64
2019-03-11T07:29:41.047Z,7.63
2019-03-11T07:32:11.441Z,7.51
2019-03-11T07:34:41.706Z,7.55
2019-03-11T07:37:12.164Z,7.61
2019-03-11T07:39:42.411Z,7.76
2019-03-11T07:42:12.821Z,7.88
2019-03-11T07:44:43.111Z,8.00
2019-03-11T07:47:13.445Z,8.14
2019-03-11T07:49:43.765Z,8.15
2019-03-11T07:52:14.099Z,8.22
2019-03-11T07:54:44.355Z,8.26
2019-03-11T07:57:14.717Z,8.18
2019-03-11T07:59:45.020Z,8.24
2019-03-11T08:02:15.320Z,8.30
2019-03-11T08:04:45.605Z,8.27
2019-03-11T08:07:15.939Z,8.25
2019-03-11T08:09:46.343Z,8.24
2019-03-11T08:12:16.837Z,8.28
2019-03-11T08:14:47.138Z,8.39
2019-03-11T08:17:17.467Z,8.38
2019-03-11T08:19:47.805Z,8.30
2019-03-11T08:22:18.769Z,8.22
2019-03-11T08:24:49.136Z,8.26
2019-03-11T08:27:19.560Z,8.28
2019-03-11T08:29:49.949Z,8.28
2019-03-11T08:32:20.396Z,8.23
2019-03-11T08:34:50.916Z,8.27
2019-03-11T08:37:27.008Z,8.44
2019-03-11T08:39:54.495Z,8.55
2019-03-11T08:42:24.975Z,8.65
2019-03-11T08:44:55.285Z,8.65
2019-03-11T08:47:25.651Z,8.68
2019-03-11T08:49:55.956Z,8.81
2019-03-11T08:52:26.434Z,8.75
2019-03-11T08:54:57.265Z,8.79
2019-03-11T08:57:27.843Z,8.79
2019-03-11T08:59:58.358Z,8.69
2019-03-11T09:02:31.019Z,8.72
2019-03-11T09:05:01.354Z,8.92
2019-03-11T09:07:31.738Z,9.01
2019-03-11T09:10:02.214Z,9.16
2019-03-11T09:12:32.802Z,9.12
2019-03-11T09:15:03.733Z,9.09
2019-03-11T09:17:35.971Z,9.19
2019-03-11T09:20:09.033Z,9.15
2019-03-11T09:22:43.479Z,9.14
2019-03-11T09:25:23.304Z,8.91
2019-03-11T09:27:54.923Z,8.85
2019-03-11T09:30:25.877Z,8.76
2019-03-11T09:32:56.497Z,8.73
2019-03-11T09:35:26.946Z,8.70
2019-03-11T09:37:57.388Z,8.78
2019-03-11T09:40:27.776Z,8.83
2019-03-11T09:43:17.523Z,9.03
2019-03-11T09:45:57.464Z,9.19
2019-03-11T09:48:58.373Z,9.24
2019-03-11T09:51:49.986Z,9.34
2019-03-11T09:54:37.573Z,9.55
2019-03-11T10:00:43.008Z,9.87
2019-03-11T10:03:13.343Z,10.09
2019-03-11T10:05:43.837Z,10.06
2019-03-11T10:08:14.282Z,10.19
2019-03-11T10:10:44.782Z,10.22
2019-03-11T10:13:15.172Z,10.51
2019-03-11T10:15:45.646Z,10.78
2019-03-11T10:18:16.441Z,10.77
2019-03-11T10:20:46.931Z,10.74
2019-03-11T10:23:17.364Z,10.56
2019-03-11T10:25:47.797Z,10.28
2019-03-11T10:28:18.553Z,10.28
2019-03-11T10:30:53.455Z,10.28
2019-03-11T10:33:23.855Z,10.34
2019-03-11T10:35:54.310Z,10.34
2019-03-11T10:38:24.780Z,10.41
2019-03-11T10:40:55.514Z,10.37
2019-03-11T10:43:26.334Z,10.39
2019-03-11T10:45:56.772Z,10.26
2019-03-11T10:48:36.687Z,10.26
2019-03-11T10:50:59.482Z,10.61
2019-03-11T10:53:30.291Z,10.61
2019-03-11T10:56:00.859Z,10.44
2019-03-11T10:58:33.029Z,10.45
2019-03-11T11:01:09.753Z,10.49
2019-03-11T11:03:49.336Z,10.75
2019-03-11T11:06:22.976Z,10.95
2019-03-11T11:08:53.515Z,11.17
2019-03-11T11:11:24.043Z,11.49
2019-03-11T11:13:54.612Z,12.13
2019-03-11T11:16:26.195Z,12.38
2019-03-11T11:19:13.747Z,12.29
2019-03-11T11:21:41.015Z,12.43
2019-03-11T11:24:12.177Z,12.25
2019-03-11T11:26:43.442Z,12.23
2019-03-11T11:29:13.982Z,11.94
2019-03-11T11:31:44.582Z,11.81
2019-03-11T11:34:25.739Z,11.68
2019-03-11T11:36:56.251Z,11.69
2019-03-11T11:39:26.824Z,11.92
2019-03-11T11:41:57.316Z,11.89
2019-03-11T11:44:28.898Z,11.79
2019-03-11T11:46:59.337Z,11.78
2019-03-11T11:49:29.832Z,11.81
2019-03-11T11:52:00.255Z,12.38
2019-03-11T11:54:30.634Z,12.77
2019-03-11T11:57:01.071Z,12.62
2019-03-11T11:59:33.638Z,12.18
2019-03-11T12:02:04.436Z,11.88
2019-03-11T12:04:35.066Z,11.85
2019-03-11T12:07:05.596Z,11.77
2019-03-11T12:09:36.124Z,11.76
2019-03-11T12:12:06.587Z,11.85
2019-03-11T12:14:37.103Z,11.85
2019-03-11T12:17:07.538Z,11.85
2019-03-11T12:19:38.031Z,12.06
2019-03-11T12:22:08.354Z,12.21
2019-03-11T12:24:39.818Z,12.21
2019-03-11T12:27:10.557Z,12.08
2019-03-11T12:29:43.488Z,12.04
2019-03-11T12:32:17.440Z,12.04
2019-03-11T12:34:47.854Z,11.99
2019-03-11T12:37:18.230Z,12.05
2019-03-11T12:39:49.655Z,13.22
2019-03-11T12:42:29.886Z,14.02
2019-03-11T12:45:05.067Z,14.20
2019-03-11T12:47:40.899Z,14.97
2019-03-11T12:50:26.880Z,15.40
2019-03-11T12:53:00.139Z,14.49
2019-03-11T12:55:45.879Z,13.55
2019-03-11T12:58:16.427Z,12.98
2019-03-11T13:00:46.822Z,12.38
2019-03-11T13:03:17.279Z,12.24
2019-03-11T13:05:47.791Z,12.29
2019-03-11T13:08:18.329Z,12.07
2019-03-11T13:10:48.691Z,11.90
2019-03-11T13:13:19.364Z,11.82
2019-03-11T13:15:51.567Z,11.85
2019-03-11T13:18:32.989Z,11.93
2019-03-11T13:21:14.950Z,12.01
2019-03-11T13:23:45.461Z,12.01
2019-03-11T13:26:15.856Z,12.31
2019-03-11T13:28:47.772Z,13.45
2019-03-11T13:31:18.638Z,13.11
2019-03-11T13:33:50.709Z,12.93
2019-03-11T13:36:21.100Z,12.86
2019-03-11T13:38:51.428Z,12.45
2019-03-11T13:41:23.065Z,12.20
2019-03-11T13:43:57.195Z,12.01
2019-03-11T13:46:31.883Z,11.84
2019-03-11T13:49:09.888Z,11.71
2019-03-11T13:51:45.008Z,11.54
2019-03-11T13:54:16.920Z,11.40
2019-03-11T13:56:47.268Z,11.08
2019-03-11T13:59:18.926Z,11.08
2019-03-11T14:01:49.283Z,10.91
2019-03-11T14:04:19.577Z,10.73
2019-03-11T14:06:49.953Z,10.49
2019-03-11T14:09:21.998Z,10.49
2019-03-11T14:11:52.533Z,10.44
2019-03-11T14:14:23.186Z,10.38
2019-03-11T14:16:57.955Z,10.34
2019-03-11T14:19:30.084Z,10.28
2019-03-11T14:22:02.157Z,10.16
2019-03-11T14:24:32.992Z,10.15
2019-03-11T14:27:03.851Z,10.21
2019-03-11T14:29:34.191Z,10.21
2019-03-11T14:32:05.169Z,10.32
2019-03-11T14:34:35.548Z,10.22
2019-03-11T14:37:05.919Z,10.23
2019-03-11T14:39:36.219Z,10.04
2019-03-11T14:42:06.586Z,9.97
2019-03-11T14:44:36.896Z,9.82
2019-03-11T14:47:08.251Z,9.82
2019-03-11T14:49:40.146Z,9.67
2019-03-11T14:52:11.978Z,9.39
2019-03-11T14:54:42.387Z,9.19
2019-03-11T14:57:13.064Z,8.81
2019-03-11T14:59:43.359Z,8.66
2019-03-11T15:02:13.745Z,8.51
2019-03-11T15:04:44.249Z,8.36
2019-03-11T15:07:14.624Z,8.26
2019-03-11T15:09:51.397Z,8.28
2019-03-11T15:12:18.296Z,8.16
2019-03-11T15:14:48.651Z,8.09
2019-03-11T15:17:19.010Z,8.00
2019-03-11T15:19:49.410Z,7.96
2019-03-11T15:22:22.186Z,7.84
2019-03-11T15:24:52.008Z,7.78
2019-03-11T15:27:22.490Z,7.69
2019-03-11T15:29:52.883Z,7.61
2019-03-11T15:32:24.247Z,7.52
2019-03-11T15:34:54.557Z,7.48
2019-03-11T15:37:24.952Z,7.41
2019-03-11T15:39:55.355Z,7.38
2019-03-11T15:42:25.771Z,7.33
2019-03-11T15:44:56.122Z,7.31
2019-03-11T15:47:27.464Z,7.34
2019-03-11T15:49:57.792Z,7.33
2019-03-11T15:52:28.289Z,7.34
2019-03-11T15:54:58.644Z,7.36
2019-03-11T15:57:38.754Z,7.34
2019-03-11T16:00:01.124Z,7.32
2019-03-11T16:02:31.579Z,7.29
2019-03-11T16:05:01.930Z,7.31
2019-03-11T16:07:32.329Z,7.27
2019-03-11T16:10:02.656Z,7.27
2019-03-11T16:12:33.091Z,7.22
2019-03-11T16:15:03.430Z,7.21
2019-03-11T16:17:33.792Z,7.14
2019-03-11T16:20:05.576Z,7.15
2019-03-11T16:22:36.518Z,7.10
2019-03-11T16:25:09.349Z,7.08
2019-03-11T16:27:39.764Z,7.08
2019-03-11T16:30:18.973Z,6.99
2019-03-11T16:32:59.121Z,6.97
2019-03-11T16:35:22.885Z,6.90
2019-03-11T16:37:53.355Z,6.89
2019-03-11T16:40:23.683Z,6.86
2019-03-11T16:42:53.973Z,6.86
2019-03-11T16:45:24.386Z,6.83
2019-03-11T16:47:55.700Z,6.78
2019-03-11T16:50:27.140Z,6.74
2019-03-11T16:52:57.529Z,6.74
2019-03-11T16:55:29.423Z,6.69
2019-03-11T16:57:59.797Z,6.72
2019-03-11T17:00:31.790Z,6.68
2019-03-11T17:03:02.190Z,6.71
2019-03-11T17:05:32.541Z,6.67
2019-03-11T17:08:02.943Z,6.66
2019-03-11T17:10:33.265Z,6.73
2019-03-11T17:13:03.767Z,6.65
2019-03-11T17:15:34.214Z,6.62
2019-03-11T17:18:04.591Z,6.63
2019-03-11T17:20:34.930Z,6.62
2019-03-11T17:23:05.420Z,6.62
2019-03-11T17:25:35.787Z,6.59
2019-03-11T17:28:06.215Z,6.57
2019-03-11T17:30:36.574Z,6.52
2019-03-11T17:33:06.955Z,6.52
2019-03-11T17:35:37.826Z,6.53
2019-03-11T17:38:08.308Z,6.44
2019-03-11T17:40:38.882Z,6.42
2019-03-11T17:43:09.314Z,6.37
2019-03-11T17:45:39.689Z,6.32
2019-03-11T17:48:11.075Z,6.25
2019-03-11T17:50:41.490Z,6.20
2019-03-11T17:53:19.813Z,6.11
2019-03-11T17:55:44.229Z,6.08
2019-03-11T17:58:14.635Z,6.08
2019-03-11T18:00:55.130Z,6.01
2019-03-11T18:03:18.511Z,5.99
2019-03-11T18:05:48.867Z,5.98
2019-03-11T18:08:19.290Z,5.96
2019-03-11T18:10:49.669Z,5.99
2019-03-11T18:13:20.075Z,5.96
2019-03-11T18:15:50.438Z,5.93
2019-03-11T18:18:20.842Z,5.93
2019-03-11T18:20:51.213Z,5.89
2019-03-11T18:23:21.652Z,5.80
2019-03-11T18:25:52.036Z,5.86
2019-03-11T18:28:22.419Z,5.84
2019-03-11T18:30:52.855Z,5.86
2019-03-11T18:33:23.297Z,5.82
2019-03-11T18:35:53.633Z,5.79
2019-03-11T18:38:24.168Z,5.75
2019-03-11T18:40:54.711Z,5.72
2019-03-11T18:43:25.224Z,5.72
2019-03-11T18:45:55.676Z,5.65
2019-03-11T18:48:26.286Z,5.67
2019-03-11T18:50:56.767Z,5.61
2019-03-11T18:53:27.385Z,5.60
2019-03-11T18:55:57.820Z,5.61
2019-03-11T18:58:28.242Z,5.60
2019-03-11T19:00:58.653Z,5.54
2019-03-11T19:03:29.218Z,5.50
2019-03-11T19:05:59.712Z,5.47
2019-03-11T19:08:30.174Z,5.41
2019-03-11T19:11:00.687Z,5.32
2019-03-11T19:13:31.171Z,5.40
2019-03-11T19:16:01.790Z,5.45
2019-03-11T19:18:32.262Z,5.54
2019-03-11T19:21:02.685Z,5.52
2019-03-11T19:23:33.185Z,5.54
2019-03-11T19:26:03.559Z,5.55
2019-03-11T19:28:34.027Z,5.52
2019-03-11T19:31:04.566Z,5.51
2019-03-11T19:33:35.141Z,5.52
2019-03-11T19:36:05.688Z,5.57
2019-03-11T19:38:36.213Z,5.55
2019-03-11T19:41:06.718Z,5.55
2019-03-11T19:43:37.261Z,5.50
2019-03-11T19:46:07.768Z,5.48
2019-03-11T19:48:39.301Z,5.47
2019-03-11T19:51:09.678Z,5.48
2019-03-11T19:53:40.078Z,5.42
2019-03-11T19:56:10.496Z,5.40
2019-03-11T19:58:40.927Z,5.35
2019-03-11T20:01:11.351Z,5.31
2019-03-11T20:03:41.871Z,5.31
2019-03-11T20:06:12.278Z,5.29
2019-03-11T20:08:42.633Z,5.21
2019-03-11T20:11:13.073Z,5.21
2019-03-11T20:13:43.522Z,5.21
2019-03-11T20:16:13.965Z,5.16
2019-03-11T20:18:44.564Z,5.09
2019-03-11T20:21:16.394Z,5.02
2019-03-11T20:23:46.801Z,4.92
2019-03-11T20:26:18.647Z,4.85
2019-03-11T20:28:49.416Z,4.84
2019-03-11T20:31:19.796Z,4.76
2019-03-11T20:33:50.258Z,4.68
2019-03-11T20:36:21.594Z,4.74
2019-03-11T20:38:52.108Z,4.66
2019-03-11T20:41:22.532Z,4.58
2019-03-11T20:43:52.931Z,4.54
2019-03-11T20:46:23.259Z,4.49
2019-03-11T20:48:53.864Z,4.48
2019-03-11T20:51:24.304Z,4.40
2019-03-11T20:53:54.739Z,4.38
2019-03-11T20:56:25.174Z,4.40
2019-03-11T20:58:55.540Z,4.30
2019-03-11T21:01:25.842Z,4.28
2019-03-11T21:03:56.281Z,4.25
2019-03-11T21:06:26.625Z,4.17
2019-03-11T21:08:57.027Z,4.15
2019-03-11T21:11:27.455Z,4.13
2019-03-11T21:13:57.882Z,4.06
2019-03-11T21:16:28.205Z,4.03
2019-03-11T21:18:58.694Z,3.95
2019-03-11T21:21:29.198Z,3.92
2019-03-11T21:24:02.209Z,3.91
2019-03-11T21:26:31.684Z,3.87
2019-03-11T21:29:02.380Z,3.86
2019-03-11T21:31:32.872Z,3.77
2019-03-11T21:34:03.347Z,3.73
2019-03-11T21:36:33.801Z,3.71
2019-03-11T21:39:05.372Z,3.75
2019-03-11T21:41:35.803Z,3.71
2019-03-11T21:44:06.206Z,3.63
2019-03-11T21:46:36.701Z,3.65
2019-03-11T21:49:08.331Z,3.65
2019-03-11T21:51:38.882Z,3.60
2019-03-11T21:54:09.425Z,3.62
2019-03-11T21:56:39.880Z,3.57
2019-03-11T21:59:10.726Z,3.61
2019-03-11T22:01:41.310Z,3.58
2019-03-11T22:04:11.809Z,3.55
2019-03-11T22:06:42.274Z,3.53
2019-03-11T22:09:12.750Z,3.46
2019-03-11T22:11:43.255Z,3.44
2019-03-11T22:14:13.783Z,3.47
2019-03-11T22:16:44.159Z,3.48
2019-03-11T22:19:14.539Z,3.24
2019-03-11T22:21:44.906Z,3.28
2019-03-11T22:24:15.269Z,3.26
2019-03-11T22:26:45.755Z,3.14
2019-03-11T22:29:16.149Z,3.20
2019-03-11T22:31:46.513Z,3.16
2019-03-11T22:34:17.033Z,3.10
2019-03-11T22:36:47.431Z,3.07
2019-03-11T22:39:17.828Z,3.09
2019-03-11T22:41:52.608Z,3.10
2019-03-11T22:44:21.788Z,3.07
2019-03-11T22:46:52.157Z,3.02
2019-03-11T22:49:23.519Z,2.96
2019-03-11T22:51:53.860Z,2.91
2019-03-11T22:54:24.227Z,2.86
2019-03-11T22:56:54.608Z,2.81
2019-03-11T22:59:25.136Z,2.81
2019-03-11T23:01:56.081Z,2.80
2019-03-11T23:04:26.578Z,2.91
2019-03-11T23:06:57.063Z,2.86
2019-03-11T23:09:27.596Z,2.86
2019-03-11T23:11:58.038Z,2.82
2019-03-11T23:14:28.540Z,2.83
2019-03-11T23:17:00.098Z,2.74
2019-03-11T23:19:32.105Z,2.74
2019-03-11T23:22:02.544Z,2.70
2019-03-11T23:24:34.081Z,2.71
2019-03-11T23:27:04.988Z,2.61
2019-03-11T23:29:35.511Z,2.57
2019-03-11T23:32:06.990Z,2.50
2019-03-11T23:34:37.475Z,2.58
2019-03-11T23:37:08.773Z,2.45
2019-03-11T23:39:39.260Z,2.49
2019-03-11T23:42:09.791Z,2.46
2019-03-11T23:44:40.307Z,2.46
2019-03-11T23:47:10.727Z,2.38
2019-03-11T23:49:42.140Z,2.43
2019-03-11T23:52:12.530Z,2.38
2019-03-11T23:54:42.998Z,2.49
2019-03-11T23:57:13.478Z,2.33
2019-03-11T23:59:43.870Z,2.28
